Terminal Aerodrome Forecast
Issued by NWS Greer, SC

Home | Current Version | Previous Version | Text Only | Print | Product List | Glossary On
Versions: 1 2 3 4 5 6 7 8 9 10 11 12 13 14 15 16 17 18 19 20 21 22 23 24 25 26 27 28 29 30 31 32 33 34 35 36 37 38 39 40 41 42 43 44 45 46 47 48 49 50
000
FTUS42 KGSP 280821 AAB
TAFCLT
TAF AMD
KCLT 280821Z 2808/2912 12006KT P6SM -SHRA SCT010 OVC040
      TEMPO 2809/2812 6SM -SHRA OVC020
     FM281300 07008KT 4SM -SHRA VCTS SCT007 OVC014CB
      TEMPO 2815/2818 2SM TS SCT007CB OVC015
     FM282000 07007KT P6SM VCSH OVC025
     FM290700 10005KT 6SM -SHRA BR OVC009 PROB30 2907/2910 2SM -TSRA
      BR OVC003CB=

USA.gov is the U.S. government's official web portal to all federal, state and local government web resources and services.